createdAt,value
2018-11-05T00:04:23.465Z,5.30
2018-11-05T00:09:26.630Z,5.40
2018-11-05T00:14:30.410Z,5.30
2018-11-05T00:19:33.666Z,5.30
2018-11-05T00:24:37.339Z,5.20
2018-11-05T00:29:40.526Z,5.20
2018-11-05T00:34:43.691Z,5.10
2018-11-05T00:39:47.435Z,5.20
2018-11-05T00:44:50.573Z,5.00
2018-11-05T00:49:53.715Z,5.00
2018-11-05T00:54:56.838Z,4.90
2018-11-05T01:00:00.910Z,4.90
2018-11-05T01:05:04.350Z,4.80
2018-11-05T01:10:08.445Z,4.70
2018-11-05T01:15:13.609Z,4.80
2018-11-05T01:20:16.766Z,4.70
2018-11-05T01:25:19.878Z,4.70
2018-11-05T01:30:23.015Z,4.70
2018-11-05T01:35:26.674Z,4.70
2018-11-05T01:40:29.838Z,4.70
2018-11-05T01:45:32.991Z,4.70
2018-11-05T01:50:36.143Z,4.70
2018-11-05T01:55:39.422Z,4.60
2018-11-05T02:00:43.002Z,4.70
2018-11-05T02:05:46.139Z,4.60
2018-11-05T02:10:49.971Z,4.70
2018-11-05T02:15:53.111Z,4.70
2018-11-05T02:20:56.286Z,4.70
2018-11-05T02:25:59.442Z,4.70
2018-11-05T02:31:02.911Z,4.70
2018-11-05T02:36:07.387Z,4.70
2018-11-05T02:41:10.510Z,4.70
2018-11-05T02:46:14.025Z,4.80
2018-11-05T02:51:17.143Z,4.70
2018-11-05T02:56:20.262Z,4.80
2018-11-05T03:01:23.462Z,4.60
2018-11-05T03:06:35.763Z,4.70
2018-11-05T03:11:39.204Z,4.80
2018-11-05T03:16:42.338Z,4.90
2018-11-05T03:21:45.471Z,4.90
2018-11-05T03:26:52.266Z,5.10
2018-11-05T03:31:56.314Z,5.10
2018-11-05T03:36:59.679Z,5.00
2018-11-05T03:42:03.489Z,5.00
2018-11-05T03:47:06.881Z,5.00
2018-11-05T03:52:10.549Z,5.20
2018-11-05T03:57:16.226Z,5.20
2018-11-05T04:02:19.390Z,5.00
2018-11-05T04:07:22.914Z,5.00
2018-11-05T04:12:26.082Z,5.00
2018-11-05T04:17:29.813Z,5.00
2018-11-05T04:22:34.394Z,5.00
2018-11-05T04:27:38.415Z,5.00
2018-11-05T04:32:44.196Z,5.10
2018-11-05T04:37:47.394Z,5.00
2018-11-05T04:42:53.416Z,5.00
2018-11-05T04:47:57.614Z,5.00
2018-11-05T04:53:00.782Z,5.00
2018-11-05T04:58:03.958Z,5.00
2018-11-05T05:03:08.568Z,5.00
2018-11-05T05:08:11.800Z,5.10
2018-11-05T05:13:14.982Z,5.10
2018-11-05T05:18:18.178Z,5.10
2018-11-05T05:23:21.591Z,5.10
2018-11-05T05:28:25.384Z,5.00
2018-11-05T05:33:28.626Z,5.00
2018-11-05T05:38:31.761Z,4.90
2018-11-05T05:43:35.335Z,4.90
2018-11-05T05:48:38.583Z,4.80
2018-11-05T05:53:41.813Z,4.70
2018-11-05T05:58:45.471Z,4.70
2018-11-05T06:03:48.645Z,4.60
2018-11-05T06:08:52.366Z,4.50
2018-11-05T06:13:55.822Z,4.40
2018-11-05T06:18:58.996Z,4.50
2018-11-05T06:24:03.284Z,4.70
2018-11-05T06:29:06.594Z,4.60
2018-11-05T06:34:10.710Z,4.50
2018-11-05T06:39:14.150Z,4.50
2018-11-05T06:44:17.573Z,4.40
2018-11-05T06:49:20.697Z,4.40
2018-11-05T06:54:24.111Z,4.50
2018-11-05T06:59:27.887Z,4.60
2018-11-05T07:04:31.088Z,4.60
2018-11-05T07:09:34.345Z,4.60
2018-11-05T07:14:37.515Z,4.70
2018-11-05T07:19:41.665Z,4.80
2018-11-05T07:24:45.323Z,4.90
2018-11-05T07:29:48.482Z,5.00
2018-11-05T07:34:51.747Z,5.10
2018-11-05T07:39:54.914Z,5.20
2018-11-05T07:44:58.103Z,5.30
2018-11-05T07:50:01.857Z,5.40
2018-11-05T07:55:06.102Z,5.50
2018-11-05T08:00:18.749Z,5.60
2018-11-05T08:05:24.481Z,5.90
2018-11-05T08:10:27.662Z,6.00
2018-11-05T08:15:31.199Z,6.20
2018-11-05T08:20:34.374Z,6.50
2018-11-05T08:25:37.610Z,6.70
2018-11-05T08:30:41.126Z,6.80
2018-11-05T08:35:45.565Z,6.80
2018-11-05T08:40:48.739Z,6.80
2018-11-05T08:45:52.858Z,6.90
2018-11-05T08:50:57.570Z,6.90
2018-11-05T08:56:02.091Z,7.00
2018-11-05T09:01:11.482Z,7.00
2018-11-05T09:06:15.538Z,7.20
2018-11-05T09:11:20.796Z,7.30
2018-11-05T09:16:24.238Z,7.50
2018-11-05T09:21:27.449Z,7.60
2018-11-05T09:26:30.661Z,7.60
2018-11-05T09:31:34.763Z,7.80
2018-11-05T09:36:37.970Z,8.00
2018-11-05T09:41:41.163Z,8.20
2018-11-05T09:46:44.616Z,8.40
2018-11-05T09:51:47.907Z,8.40
2018-11-05T09:56:51.117Z,8.50
2018-11-05T10:01:55.074Z,8.60
2018-11-05T10:06:58.347Z,8.80
2018-11-05T10:12:02.363Z,8.80
2018-11-05T10:17:07.790Z,8.80
2018-11-05T10:22:12.226Z,8.90
2018-11-05T10:27:16.343Z,9.00
2018-11-05T10:32:19.794Z,9.20
2018-11-05T10:37:22.986Z,9.50
2018-11-05T10:42:27.530Z,9.60
2018-11-05T10:47:30.787Z,9.60
2018-11-05T10:52:36.346Z,9.50
2018-11-05T10:57:40.967Z,9.70
2018-11-05T11:02:48.434Z,10.00
2018-11-05T11:07:53.551Z,10.50
2018-11-05T11:12:56.944Z,10.30
2018-11-05T11:18:00.132Z,10.30
2018-11-05T11:23:03.419Z,10.20
2018-11-05T11:28:07.752Z,10.10
2018-11-05T11:33:10.885Z,10.30
2018-11-05T11:38:14.109Z,10.30
2018-11-05T11:43:17.322Z,10.30
2018-11-05T11:48:21.095Z,10.50
2018-11-05T11:53:24.624Z,10.60
2018-11-05T11:58:27.778Z,10.70
2018-11-05T12:03:31.010Z,10.90
2018-11-05T12:08:34.562Z,10.80
2018-11-05T12:13:37.803Z,11.10
2018-11-05T12:18:41.312Z,11.00
2018-11-05T12:23:44.567Z,11.00
2018-11-05T12:28:48.646Z,10.90
2018-11-05T12:33:52.589Z,11.10
2018-11-05T12:38:55.929Z,11.10
2018-11-05T12:43:59.031Z,11.20
2018-11-05T12:49:02.217Z,11.40
2018-11-05T12:54:05.730Z,11.50
2018-11-05T12:59:09.671Z,11.60
2018-11-05T13:04:12.996Z,11.60
2018-11-05T13:09:17.150Z,11.70
2018-11-05T13:14:21.293Z,11.60
2018-11-05T13:19:24.534Z,11.70
2018-11-05T13:24:27.706Z,12.00
2018-11-05T13:29:32.039Z,12.10
2018-11-05T13:34:36.359Z,12.20
2018-11-05T13:39:39.550Z,12.20
2018-11-05T13:44:42.856Z,12.20
2018-11-05T13:49:46.260Z,11.90
2018-11-05T13:54:50.088Z,11.80
2018-11-05T13:59:53.559Z,11.70
2018-11-05T14:04:57.740Z,11.80
2018-11-05T14:10:01.843Z,11.90
2018-11-05T14:15:05.631Z,11.80
2018-11-05T14:20:10.269Z,11.80
2018-11-05T14:25:15.888Z,11.60
2018-11-05T14:30:19.192Z,11.50
2018-11-05T14:35:22.387Z,11.40
2018-11-05T14:40:25.624Z,11.30
2018-11-05T14:45:28.862Z,11.20
2018-11-05T14:50:32.211Z,11.10
2018-11-05T14:55:35.411Z,11.00
2018-11-05T15:00:38.643Z,10.90
2018-11-05T15:05:41.964Z,10.80
2018-11-05T15:10:45.174Z,10.70
2018-11-05T15:15:48.402Z,10.60
2018-11-05T15:20:53.218Z,10.60
2018-11-05T15:25:56.407Z,10.50
2018-11-05T15:31:23.999Z,10.50
2018-11-05T16:16:38.895Z,9.90
2018-11-05T16:21:46.617Z,10.00
2018-11-05T16:26:51.037Z,10.00
2018-11-05T16:31:54.299Z,10.00
2018-11-05T16:42:50.182Z,10.10
2018-11-05T16:47:54.314Z,10.10
2018-11-05T16:52:57.578Z,10.10
2018-11-05T16:58:00.876Z,10.10
2018-11-05T17:03:04.880Z,10.10
2018-11-05T17:08:07.972Z,10.00
2018-11-05T17:13:11.202Z,10.00
2018-11-05T17:18:14.374Z,9.90
2018-11-05T17:23:17.607Z,9.80
2018-11-05T17:28:20.771Z,9.80
2018-11-05T17:33:24.035Z,9.60
2018-11-05T17:38:27.991Z,9.60
2018-11-05T17:43:31.400Z,9.50
2018-11-05T17:48:34.692Z,9.60
2018-11-05T17:53:37.951Z,9.50
2018-11-05T17:58:44.751Z,9.40
2018-11-05T18:03:48.077Z,9.40
2018-11-05T18:08:53.620Z,9.40
2018-11-05T18:14:00.641Z,9.40
2018-11-05T18:19:04.249Z,9.30
2018-11-05T18:24:08.500Z,9.30
2018-11-05T18:29:11.673Z,9.30
2018-11-05T18:34:16.630Z,9.20
2018-11-05T18:39:21.318Z,9.20
2018-11-05T18:44:25.965Z,9.20
2018-11-05T18:49:29.384Z,9.10
2018-11-05T18:54:35.342Z,9.00
2018-11-05T18:59:40.446Z,9.10
2018-11-05T19:04:49.552Z,9.00
2018-11-05T19:10:09.254Z,9.10
2018-11-05T19:21:34.828Z,9.00
2018-11-05T19:26:49.636Z,8.90
2018-11-05T19:32:08.743Z,8.90
2018-11-05T19:37:12.889Z,9.00
2018-11-05T19:42:16.870Z,9.00
2018-11-05T19:47:23.713Z,9.00
2018-11-05T19:52:32.307Z,9.00
2018-11-05T19:57:44.403Z,9.00
2018-11-05T20:02:55.934Z,8.90
2018-11-05T20:08:01.006Z,8.90
2018-11-05T20:13:08.170Z,8.70
2018-11-05T20:18:12.096Z,8.70
2018-11-05T20:23:19.023Z,8.60
2018-11-05T20:34:38.307Z,8.60
2018-11-05T20:40:21.641Z,8.60
2018-11-05T20:45:25.743Z,8.60
2018-11-05T20:50:39.924Z,8.60
2018-11-05T20:56:18.056Z,8.60
2018-11-05T21:01:28.825Z,8.50
2018-11-05T21:06:32.131Z,8.60
2018-11-05T21:11:35.334Z,8.50
2018-11-05T21:16:38.666Z,8.40
2018-11-05T21:21:42.619Z,8.40
2018-11-05T21:26:45.965Z,8.30
2018-11-05T21:31:49.123Z,8.30
2018-11-05T21:36:52.331Z,8.40
2018-11-05T21:41:56.084Z,8.40
2018-11-05T21:46:59.551Z,8.30
2018-11-05T21:52:02.833Z,8.20
2018-11-05T21:57:06.041Z,8.20
2018-11-05T22:02:09.214Z,8.20
2018-11-05T22:07:12.477Z,8.30
2018-11-05T22:12:17.493Z,8.30
2018-11-05T22:17:20.698Z,8.20
2018-11-05T22:22:24.609Z,8.10
2018-11-05T22:27:30.483Z,8.10
2018-11-05T22:32:33.862Z,8.10
2018-11-05T22:37:37.390Z,8.20
2018-11-05T22:42:40.755Z,8.00
2018-11-05T22:47:44.951Z,8.00
2018-11-05T22:52:48.995Z,8.10
2018-11-05T22:57:52.371Z,8.10
2018-11-05T23:03:01.150Z,8.10
2018-11-05T23:08:04.953Z,8.10
2018-11-05T23:13:08.142Z,8.20
2018-11-05T23:18:11.440Z,8.10
2018-11-05T23:23:17.274Z,8.20
2018-11-05T23:28:20.435Z,8.20
2018-11-05T23:33:23.765Z,8.20
2018-11-05T23:38:26.827Z,8.20
2018-11-05T23:43:30.218Z,8.20
2018-11-05T23:48:33.489Z,8.30
2018-11-05T23:53:36.737Z,8.30
2018-11-05T23:58:39.915Z,8.20
